sensor_id;sensor_type;location;lat;lon;timestamp;pressure;altitude;pressure_sealevel;temperature;humidity
28797;BME280;24974;54.444;18.560;2023-02-19T00:00:35;100471.66;;;7.40;55.87
28797;BME280;24974;54.444;18.560;2023-02-19T00:03:06;100462.66;;;7.40;55.88
28797;BME280;24974;54.444;18.560;2023-02-19T00:05:36;100468.22;;;7.29;56.25
28797;BME280;24974;54.444;18.560;2023-02-19T00:08:07;100468.16;;;8.10;54.09
28797;BME280;24974;54.444;18.560;2023-02-19T00:10:38;100468.88;;;7.83;55.06
28797;BME280;24974;54.444;18.560;2023-02-19T00:13:09;100467.16;;;7.68;55.20
28797;BME280;24974;54.444;18.560;2023-02-19T00:15:40;100474.28;;;7.26;56.95
28797;BME280;24974;54.444;18.560;2023-02-19T00:18:11;100482.38;;;6.89;57.86
28797;BME280;24974;54.444;18.560;2023-02-19T00:20:41;100485.53;;;7.44;56.28
28797;BME280;24974;54.444;18.560;2023-02-19T00:23:12;100480.22;;;7.34;56.78
28797;BME280;24974;54.444;18.560;2023-02-19T00:25:43;100492.44;;;7.17;56.99
28797;BME280;24974;54.444;18.560;2023-02-19T00:28:14;100493.06;;;6.85;58.16
28797;BME280;24974;54.444;18.560;2023-02-19T00:30:45;100495.16;;;7.41;56.35
28797;BME280;24974;54.444;18.560;2023-02-19T00:33:16;100480.97;;;7.39;55.88
28797;BME280;24974;54.444;18.560;2023-02-19T00:35:47;100478.78;;;7.79;55.34
28797;BME280;24974;54.444;18.560;2023-02-19T00:38:17;100481.38;;;7.89;55.13
28797;BME280;24974;54.444;18.560;2023-02-19T00:40:48;100484.16;;;7.65;55.60
28797;BME280;24974;54.444;18.560;2023-02-19T00:43:19;100492.38;;;8.03;54.49
28797;BME280;24974;54.444;18.560;2023-02-19T00:45:50;100483.59;;;7.87;55.07
28797;BME280;24974;54.444;18.560;2023-02-19T00:48:21;100489.88;;;7.88;55.00
28797;BME280;24974;54.444;18.560;2023-02-19T00:50:52;100497.25;;;7.01;56.95
28797;BME280;24974;54.444;18.560;2023-02-19T00:53:23;100498.59;;;7.71;55.22
28797;BME280;24974;54.444;18.560;2023-02-19T00:55:54;100504.88;;;7.90;55.12
28797;BME280;24974;54.444;18.560;2023-02-19T00:58:24;100495.84;;;8.08;53.52
28797;BME280;24974;54.444;18.560;2023-02-19T01:00:56;100512.31;;;8.22;54.15
28797;BME280;24974;54.444;18.560;2023-02-19T01:03:27;100506.97;;;8.50;52.60
28797;BME280;24974;54.444;18.560;2023-02-19T01:05:58;100515.72;;;7.57;55.03
28797;BME280;24974;54.444;18.560;2023-02-19T01:08:29;100514.59;;;7.16;56.26
28797;BME280;24974;54.444;18.560;2023-02-19T01:11:05;100500.59;;;7.84;54.67
28797;BME280;24974;54.444;18.560;2023-02-19T01:13:37;100502.69;;;7.31;55.94
28797;BME280;24974;54.444;18.560;2023-02-19T01:16:21;100500.91;;;7.40;55.76
28797;BME280;24974;54.444;18.560;2023-02-19T06:05:53;100517.44;;;7.91;55.07
28797;BME280;24974;54.444;18.560;2023-02-19T06:08:24;100514.38;;;8.49;53.84
28797;BME280;24974;54.444;18.560;2023-02-19T06:10:55;100514.19;;;8.27;53.96
28797;BME280;24974;54.444;18.560;2023-02-19T06:13:52;100520.28;;;8.56;53.60
28797;BME280;24974;54.444;18.560;2023-02-19T06:16:23;100526.25;;;8.45;53.93
28797;BME280;24974;54.444;18.560;2023-02-19T06:18:55;100526.25;;;8.45;53.93
28797;BME280;24974;54.444;18.560;2023-02-19T06:21:26;100531.59;;;8.68;53.29
28797;BME280;24974;54.444;18.560;2023-02-19T06:23:56;100535.41;;;8.16;54.98
28797;BME280;24974;54.444;18.560;2023-02-19T06:26:27;100533.16;;;8.88;53.19
28797;BME280;24974;54.444;18.560;2023-02-19T06:28:58;100543.38;;;7.75;56.02
28797;BME280;24974;54.444;18.560;2023-02-19T06:31:29;100543.09;;;7.34;57.00
28797;BME280;24974;54.444;18.560;2023-02-19T06:34:03;100540.53;;;8.04;55.63
28797;BME280;24974;54.444;18.560;2023-02-19T06:36:34;100552.91;;;7.77;55.82
28797;BME280;24974;54.444;18.560;2023-02-19T06:39:05;100550.44;;;8.00;55.58
28797;BME280;24974;54.444;18.560;2023-02-19T06:41:36;100549.22;;;8.62;54.55
28797;BME280;24974;54.444;18.560;2023-02-19T06:44:07;100559.31;;;7.92;55.55
28797;BME280;24974;54.444;18.560;2023-02-19T06:46:38;100567.66;;;7.39;56.67
28797;BME280;24974;54.444;18.560;2023-02-19T06:49:08;100574.66;;;7.21;57.48
28797;BME280;24974;54.444;18.560;2023-02-19T06:51:40;100579.28;;;7.49;56.69
28797;BME280;24974;54.444;18.560;2023-02-19T06:54:10;100591.31;;;7.24;57.30
28797;BME280;24974;54.444;18.560;2023-02-19T06:56:41;100579.66;;;7.62;56.27
28797;BME280;24974;54.444;18.560;2023-02-19T06:59:14;100585.59;;;7.69;56.45
28797;BME280;24974;54.444;18.560;2023-02-19T07:01:46;100587.06;;;7.37;56.82
28797;BME280;24974;54.444;18.560;2023-02-19T07:04:17;100588.88;;;7.90;54.92
28797;BME280;24974;54.444;18.560;2023-02-19T07:06:47;100591.75;;;7.08;57.22
28797;BME280;24974;54.444;18.560;2023-02-19T07:09:18;100593.84;;;6.87;57.85
28797;BME280;24974;54.444;18.560;2023-02-19T07:11:49;100592.81;;;7.36;56.32
28797;BME280;24974;54.444;18.560;2023-02-19T07:14:20;100594.03;;;7.72;55.60
28797;BME280;24974;54.444;18.560;2023-02-19T07:16:51;100591.66;;;7.42;56.07
28797;BME280;24974;54.444;18.560;2023-02-19T07:19:22;100601.75;;;7.17;55.81
28797;BME280;24974;54.444;18.560;2023-02-19T07:21:52;100600.38;;;6.91;56.07
28797;BME280;24974;54.444;18.560;2023-02-19T07:24:23;100601.81;;;7.84;54.29
28797;BME280;24974;54.444;18.560;2023-02-19T07:26:54;100595.19;;;7.18;55.41
28797;BME280;24974;54.444;18.560;2023-02-19T07:29:25;100603.44;;;7.37;54.49
28797;BME280;24974;54.444;18.560;2023-02-19T07:31:56;100603.06;;;8.34;52.92
28797;BME280;24974;54.444;18.560;2023-02-19T07:34:26;100605.56;;;8.12;53.36
28797;BME280;24974;54.444;18.560;2023-02-19T07:36:57;100613.38;;;8.00;53.65
28797;BME280;24974;54.444;18.560;2023-02-19T07:39:28;100617.31;;;7.70;53.76
28797;BME280;24974;54.444;18.560;2023-02-19T07:41:59;100626.69;;;7.64;54.67
28797;BME280;24974;54.444;18.560;2023-02-19T07:44:31;100631.81;;;7.94;53.35
28797;BME280;24974;54.444;18.560;2023-02-19T07:47:02;100631.56;;;7.67;54.26
28797;BME280;24974;54.444;18.560;2023-02-19T07:49:32;100623.47;;;8.42;51.96
28797;BME280;24974;54.444;18.560;2023-02-19T07:52:03;100633.41;;;8.76;51.24
28797;BME280;24974;54.444;18.560;2023-02-19T07:54:34;100635.31;;;8.56;51.73
28797;BME280;24974;54.444;18.560;2023-02-19T07:57:05;100647.28;;;8.04;52.96
28797;BME280;24974;54.444;18.560;2023-02-19T07:59:36;100644.09;;;8.16;52.49
28797;BME280;24974;54.444;18.560;2023-02-19T08:02:17;100646.81;;;7.49;52.50
28797;BME280;24974;54.444;18.560;2023-02-19T08:05:07;100650.00;;;8.04;52.71
28797;BME280;24974;54.444;18.560;2023-02-19T08:07:40;100649.94;;;8.09;52.16
28797;BME280;24974;54.444;18.560;2023-02-19T08:10:11;100653.84;;;8.03;52.63
28797;BME280;24974;54.444;18.560;2023-02-19T08:13:00;100661.69;;;7.62;52.85
28797;BME280;24974;54.444;18.560;2023-02-19T08:18:23;100677.19;;;8.19;51.31
28797;BME280;24974;54.444;18.560;2023-02-19T08:20:55;100690.31;;;8.41;50.55
28797;BME280;24974;54.444;18.560;2023-02-19T08:23:26;100684.31;;;7.43;53.35
28797;BME280;24974;54.444;18.560;2023-02-19T08:25:58;100675.50;;;7.99;51.81
28797;BME280;24974;54.444;18.560;2023-02-19T08:28:30;100685.50;;;8.09;51.58
28797;BME280;24974;54.444;18.560;2023-02-19T08:31:03;100691.44;;;8.16;51.40
28797;BME280;24974;54.444;18.560;2023-02-19T08:33:35;100695.63;;;8.32;51.56
28797;BME280;24974;54.444;18.560;2023-02-19T08:36:08;100693.03;;;8.97;49.43
28797;BME280;24974;54.444;18.560;2023-02-19T08:38:39;100693.22;;;8.50;50.34
28797;BME280;24974;54.444;18.560;2023-02-19T08:41:12;100707.34;;;8.38;50.71
28797;BME280;24974;54.444;18.560;2023-02-19T08:43:43;100707.31;;;8.19;50.60
28797;BME280;24974;54.444;18.560;2023-02-19T08:46:14;100712.06;;;7.84;52.03
28797;BME280;24974;54.444;18.560;2023-02-19T08:48:44;100714.31;;;8.25;49.79
28797;BME280;24974;54.444;18.560;2023-02-19T08:51:15;100716.53;;;8.66;49.08
28797;BME280;24974;54.444;18.560;2023-02-19T08:53:46;100714.63;;;8.00;50.02
28797;BME280;24974;54.444;18.560;2023-02-19T08:56:17;100713.22;;;8.88;47.86
28797;BME280;24974;54.444;18.560;2023-02-19T08:58:48;100712.69;;;9.05;47.35
28797;BME280;24974;54.444;18.560;2023-02-19T09:01:19;100725.09;;;8.17;49.01
28797;BME280;24974;54.444;18.560;2023-02-19T09:03:50;100707.78;;;9.67;46.37
28797;BME280;24974;54.444;18.560;2023-02-19T09:06:22;100722.19;;;8.08;48.12
28797;BME280;24974;54.444;18.560;2023-02-19T09:08:53;100727.59;;;8.99;46.08
28797;BME280;24974;54.444;18.560;2023-02-19T09:11:24;100726.56;;;8.76;46.47
28797;BME280;24974;54.444;18.560;2023-02-19T09:13:55;100722.00;;;9.04;45.70
28797;BME280;24974;54.444;18.560;2023-02-19T09:16:26;100730.94;;;7.86;47.40
28797;BME280;24974;54.444;18.560;2023-02-19T09:18:57;100729.44;;;8.84;46.18
28797;BME280;24974;54.444;18.560;2023-02-19T09:21:28;100732.84;;;8.76;46.37
28797;BME280;24974;54.444;18.560;2023-02-19T09:23:59;100730.47;;;8.69;44.83
28797;BME280;24974;54.444;18.560;2023-02-19T09:26:30;100724.75;;;8.66;45.46
28797;BME280;24974;54.444;18.560;2023-02-19T09:29:01;100716.19;;;8.91;45.09
28797;BME280;24974;54.444;18.560;2023-02-19T09:31:32;100728.38;;;9.18;44.73
28797;BME280;24974;54.444;18.560;2023-02-19T09:34:04;100726.41;;;9.37;43.47
28797;BME280;24974;54.444;18.560;2023-02-19T09:36:36;100727.78;;;10.27;42.50
28797;BME280;24974;54.444;18.560;2023-02-19T09:39:08;100729.69;;;9.39;43.55
28797;BME280;24974;54.444;18.560;2023-02-19T09:41:45;100725.81;;;9.87;42.63
28797;BME280;24974;54.444;18.560;2023-02-19T09:44:26;100737.78;;;9.44;42.67
28797;BME280;24974;54.444;18.560;2023-02-19T09:47:00;100726.53;;;10.33;41.18
28797;BME280;24974;54.444;18.560;2023-02-19T09:49:38;100733.94;;;10.33;40.38
28797;BME280;24974;54.444;18.560;2023-02-19T09:52:35;100736.22;;;9.06;41.95
28797;BME280;24974;54.444;18.560;2023-02-19T09:55:23;100745.13;;;9.95;41.48
28797;BME280;24974;54.444;18.560;2023-02-19T09:57:56;100735.03;;;9.12;40.45
28797;BME280;24974;54.444;18.560;2023-02-19T10:00:30;100750.59;;;8.97;38.76
28797;BME280;24974;54.444;18.560;2023-02-19T10:06:04;100748.63;;;9.03;38.29
28797;BME280;24974;54.444;18.560;2023-02-19T10:08:36;100760.47;;;9.17;38.52
28797;BME280;24974;54.444;18.560;2023-02-19T10:11:11;100755.56;;;9.33;38.42
28797;BME280;24974;54.444;18.560;2023-02-19T10:13:45;100759.09;;;9.34;38.54
28797;BME280;24974;54.444;18.560;2023-02-19T10:16:22;100754.09;;;9.55;39.07
28797;BME280;24974;54.444;18.560;2023-02-19T10:18:53;100761.97;;;10.02;37.25
28797;BME280;24974;54.444;18.560;2023-02-19T10:21:26;100757.59;;;9.41;36.44
28797;BME280;24974;54.444;18.560;2023-02-19T10:24:01;100771.94;;;9.71;35.41
28797;BME280;24974;54.444;18.560;2023-02-19T10:26:34;100753.81;;;9.70;34.72
28797;BME280;24974;54.444;18.560;2023-02-19T10:29:06;100748.28;;;9.89;34.19
28797;BME280;24974;54.444;18.560;2023-02-19T10:31:37;100765.09;;;10.28;34.27
28797;BME280;24974;54.444;18.560;2023-02-19T10:34:17;100762.53;;;10.59;34.29
28797;BME280;24974;54.444;18.560;2023-02-19T10:36:49;100764.47;;;9.25;35.79
28797;BME280;24974;54.444;18.560;2023-02-19T10:41:52;100775.06;;;9.78;34.19
28797;BME280;24974;54.444;18.560;2023-02-19T10:44:28;100778.13;;;11.23;32.70
28797;BME280;24974;54.444;18.560;2023-02-19T10:47:00;100777.50;;;10.67;33.13
28797;BME280;24974;54.444;18.560;2023-02-19T10:49:37;100797.03;;;10.38;33.69
28797;BME280;24974;54.444;18.560;2023-02-19T10:52:20;100789.66;;;10.06;34.40
28797;BME280;24974;54.444;18.560;2023-02-19T10:54:55;100782.56;;;11.55;31.81
28797;BME280;24974;54.444;18.560;2023-02-19T10:57:28;100790.38;;;10.80;33.31
28797;BME280;24974;54.444;18.560;2023-02-19T11:00:31;100792.31;;;10.66;32.02
28797;BME280;24974;54.444;18.560;2023-02-19T11:03:21;100790.38;;;12.06;30.54
28797;BME280;24974;54.444;18.560;2023-02-19T11:05:59;100806.47;;;11.23;30.74
28797;BME280;24974;54.444;18.560;2023-02-19T11:11:38;100804.56;;;10.60;32.62
28797;BME280;24974;54.444;18.560;2023-02-19T11:14:15;100811.28;;;10.68;32.01
28797;BME280;24974;54.444;18.560;2023-02-19T11:16:52;100805.34;;;11.24;31.01
28797;BME280;24974;54.444;18.560;2023-02-19T11:22:02;100804.31;;;12.49;29.65
28797;BME280;24974;54.444;18.560;2023-02-19T11:24:49;100814.34;;;13.11;28.10
28797;BME280;24974;54.444;18.560;2023-02-19T11:27:23;100807.19;;;13.88;27.48
28797;BME280;24974;54.444;18.560;2023-02-19T11:29:54;100819.59;;;14.28;27.02
28797;BME280;24974;54.444;18.560;2023-02-19T11:32:28;100828.50;;;13.27;27.46
28797;BME280;24974;54.444;18.560;2023-02-19T11:35:19;100814.81;;;12.87;28.50
28797;BME280;24974;54.444;18.560;2023-02-19T11:37:57;100819.81;;;14.06;26.95
28797;BME280;24974;54.444;18.560;2023-02-19T12:09:59;100872.94;;;10.89;33.74
28797;BME280;24974;54.444;18.560;2023-02-19T12:26:27;100878.06;;;15.36;25.13
28797;BME280;24974;54.444;18.560;2023-02-19T12:34:30;100889.28;;;14.60;24.41
28797;BME280;24974;54.444;18.560;2023-02-19T12:43:18;100881.34;;;16.13;22.04
28797;BME280;24974;54.444;18.560;2023-02-19T12:46:11;100887.59;;;15.48;21.85
28797;BME280;24974;54.444;18.560;2023-02-19T12:48:49;100899.19;;;14.91;21.14
28797;BME280;24974;54.444;18.560;2023-02-19T12:51:28;100900.47;;;12.91;22.82
28797;BME280;24974;54.444;18.560;2023-02-19T12:57:04;100904.00;;;14.17;22.56
28797;BME280;24974;54.444;18.560;2023-02-19T12:59:51;100918.66;;;12.92;21.60
28797;BME280;24974;54.444;18.560;2023-02-19T13:02:32;100902.63;;;14.41;20.81
28797;BME280;24974;54.444;18.560;2023-02-19T13:05:45;100909.19;;;15.13;20.24
28797;BME280;24974;54.444;18.560;2023-02-19T13:08:28;100894.63;;;14.57;20.13
28797;BME280;24974;54.444;18.560;2023-02-19T13:12:10;100910.47;;;14.30;20.51
28797;BME280;24974;54.444;18.560;2023-02-19T13:20:09;100914.13;;;12.02;21.60
28797;BME280;24974;54.444;18.560;2023-02-19T13:37:17;100930.09;;;15.01;19.84
28797;BME280;24974;54.444;18.560;2023-02-19T13:39:51;100929.53;;;15.17;19.95
28797;BME280;24974;54.444;18.560;2023-02-19T13:42:32;100931.09;;;14.50;20.17
28797;BME280;24974;54.444;18.560;2023-02-19T13:45:05;100946.28;;;13.83;21.41
28797;BME280;24974;54.444;18.560;2023-02-19T13:50:32;100948.03;;;15.96;20.29
28797;BME280;24974;54.444;18.560;2023-02-19T13:59:23;100953.72;;;14.90;20.41
28797;BME280;24974;54.444;18.560;2023-02-19T14:09:47;100971.75;;;13.46;21.10
28797;BME280;24974;54.444;18.560;2023-02-19T14:12:20;100961.25;;;13.91;20.59
28797;BME280;24974;54.444;18.560;2023-02-19T14:14:55;100980.25;;;13.84;21.27
28797;BME280;24974;54.444;18.560;2023-02-19T14:17:47;100986.44;;;13.98;21.58
28797;BME280;24974;54.444;18.560;2023-02-19T14:20:41;100983.97;;;13.79;21.57
28797;BME280;24974;54.444;18.560;2023-02-19T14:23:24;100973.38;;;15.06;20.84
28797;BME280;24974;54.444;18.560;2023-02-19T14:25:59;100990.06;;;15.56;20.37
28797;BME280;24974;54.444;18.560;2023-02-19T14:28:43;100981.16;;;12.96;23.58
28797;BME280;24974;54.444;18.560;2023-02-19T14:31:30;100984.47;;;11.86;24.37
28797;BME280;24974;54.444;18.560;2023-02-19T14:34:14;100990.50;;;12.55;23.82
28797;BME280;24974;54.444;18.560;2023-02-19T14:36:49;100987.81;;;12.42;24.51
28797;BME280;24974;54.444;18.560;2023-02-19T14:39:28;101003.56;;;11.83;24.64
28797;BME280;24974;54.444;18.560;2023-02-19T14:42:04;100984.50;;;11.72;25.33
28797;BME280;24974;54.444;18.560;2023-02-19T14:44:47;100995.38;;;11.91;25.20
28797;BME280;24974;54.444;18.560;2023-02-19T14:47:22;101005.78;;;11.17;26.59
28797;BME280;24974;54.444;18.560;2023-02-19T14:49:58;101002.84;;;11.77;25.95
28797;BME280;24974;54.444;18.560;2023-02-19T14:57:44;101017.94;;;10.18;28.37
28797;BME280;24974;54.444;18.560;2023-02-19T15:00:36;101025.19;;;9.29;29.93
28797;BME280;24974;54.444;18.560;2023-02-19T15:06:15;101042.81;;;10.08;29.90
28797;BME280;24974;54.444;18.560;2023-02-19T15:08:52;101040.53;;;9.53;30.83
28797;BME280;24974;54.444;18.560;2023-02-19T15:11:28;101040.47;;;8.87;32.35
28797;BME280;24974;54.444;18.560;2023-02-19T15:14:04;101046.78;;;8.58;32.76
28797;BME280;24974;54.444;18.560;2023-02-19T15:16:35;101050.50;;;8.38;34.07
28797;BME280;24974;54.444;18.560;2023-02-19T15:19:08;101052.91;;;8.74;33.31
28797;BME280;24974;54.444;18.560;2023-02-19T15:21:44;101053.84;;;7.81;35.31
28797;BME280;24974;54.444;18.560;2023-02-19T15:24:17;101046.34;;;8.75;34.58
28797;BME280;24974;54.444;18.560;2023-02-19T15:26:53;101064.56;;;8.61;34.76
28797;BME280;24974;54.444;18.560;2023-02-19T15:29:26;101060.47;;;7.70;36.38
28797;BME280;24974;54.444;18.560;2023-02-19T15:31:59;101066.34;;;7.97;36.16
28797;BME280;24974;54.444;18.560;2023-02-19T15:34:31;101062.63;;;8.22;35.78
28797;BME280;24974;54.444;18.560;2023-02-19T15:37:06;101063.53;;;8.81;34.92
28797;BME280;24974;54.444;18.560;2023-02-19T15:39:42;101087.16;;;8.43;35.38
28797;BME280;24974;54.444;18.560;2023-02-19T15:42:17;101071.06;;;8.31;36.61
28797;BME280;24974;54.444;18.560;2023-02-19T15:45:12;101083.81;;;8.06;36.48
28797;BME280;24974;54.444;18.560;2023-02-19T15:48:07;101092.09;;;7.91;37.17
28797;BME280;24974;54.444;18.560;2023-02-19T15:50:42;101086.66;;;8.35;36.64
28797;BME280;24974;54.444;18.560;2023-02-19T15:53:23;101091.22;;;8.01;36.97
28797;BME280;24974;54.444;18.560;2023-02-19T15:58:48;101095.25;;;7.64;37.67
28797;BME280;24974;54.444;18.560;2023-02-19T16:01:35;101093.47;;;7.14;39.00
28797;BME280;24974;54.444;18.560;2023-02-19T16:04:14;101091.22;;;7.46;38.60
28797;BME280;24974;54.444;18.560;2023-02-19T16:06:57;101097.28;;;7.23;39.97
28797;BME280;24974;54.444;18.560;2023-02-19T16:09:37;101104.69;;;8.41;37.88
28797;BME280;24974;54.444;18.560;2023-02-19T16:12:22;101104.78;;;7.72;39.50
28797;BME280;24974;54.444;18.560;2023-02-19T16:14:53;101108.00;;;7.84;39.15
28797;BME280;24974;54.444;18.560;2023-02-19T16:17:24;101119.34;;;7.57;40.20
28797;BME280;24974;54.444;18.560;2023-02-19T16:19:59;101124.00;;;7.56;40.22
28797;BME280;24974;54.444;18.560;2023-02-19T16:22:38;101127.25;;;7.53;40.95
28797;BME280;24974;54.444;18.560;2023-02-19T16:25:23;101134.16;;;7.41;41.10
28797;BME280;24974;54.444;18.560;2023-02-19T16:27:55;101151.88;;;7.53;40.78
28797;BME280;24974;54.444;18.560;2023-02-19T16:30:31;101145.00;;;7.66;41.09
28797;BME280;24974;54.444;18.560;2023-02-19T16:36:34;101152.16;;;7.52;41.68
28797;BME280;24974;54.444;18.560;2023-02-19T16:44:32;101150.88;;;7.09;42.61
28797;BME280;24974;54.444;18.560;2023-02-19T16:47:13;101138.50;;;7.52;42.36
28797;BME280;24974;54.444;18.560;2023-02-19T16:49:44;101149.28;;;7.93;41.36
28797;BME280;24974;54.444;18.560;2023-02-19T16:52:15;101148.94;;;8.09;40.87
28797;BME280;24974;54.444;18.560;2023-02-19T16:54:47;101158.19;;;7.54;42.30
28797;BME280;24974;54.444;18.560;2023-02-19T16:57:18;101141.72;;;7.69;41.92
28797;BME280;24974;54.444;18.560;2023-02-19T16:59:50;101147.22;;;7.64;42.06
28797;BME280;24974;54.444;18.560;2023-02-19T17:02:22;101142.91;;;8.07;41.08
28797;BME280;24974;54.444;18.560;2023-02-19T17:04:54;101147.59;;;7.01;43.09
28797;BME280;24974;54.444;18.560;2023-02-19T17:07:25;101153.81;;;7.53;42.36
28797;BME280;24974;54.444;18.560;2023-02-19T17:09:57;101152.78;;;7.03;43.69
28797;BME280;24974;54.444;18.560;2023-02-19T17:12:27;101153.06;;;7.22;42.65
28797;BME280;24974;54.444;18.560;2023-02-19T17:14:58;101139.97;;;7.99;41.57
28797;BME280;24974;54.444;18.560;2023-02-19T17:17:29;101144.97;;;7.81;41.20
28797;BME280;24974;54.444;18.560;2023-02-19T17:20:00;101152.41;;;7.66;41.65
28797;BME280;24974;54.444;18.560;2023-02-19T17:22:30;101154.38;;;7.50;42.09
28797;BME280;24974;54.444;18.560;2023-02-19T17:25:01;101147.88;;;6.59;43.67
28797;BME280;24974;54.444;18.560;2023-02-19T17:27:33;101147.88;;;6.95;43.05
28797;BME280;24974;54.444;18.560;2023-02-19T17:30:14;101136.06;;;7.40;42.23
28797;BME280;24974;54.444;18.560;2023-02-19T17:32:47;101152.25;;;7.06;42.13
28797;BME280;24974;54.444;18.560;2023-02-19T17:35:18;101151.16;;;6.61;43.28
28797;BME280;24974;54.444;18.560;2023-02-19T17:37:48;101154.72;;;6.82;43.30
28797;BME280;24974;54.444;18.560;2023-02-19T17:40:26;101157.72;;;7.16;42.00
28797;BME280;24974;54.444;18.560;2023-02-19T17:42:57;101153.00;;;7.37;42.20
28797;BME280;24974;54.444;18.560;2023-02-19T17:45:28;101146.19;;;7.35;41.88
28797;BME280;24974;54.444;18.560;2023-02-19T17:47:59;101153.63;;;6.88;43.09
28797;BME280;24974;54.444;18.560;2023-02-19T17:50:31;101149.53;;;6.60;43.80
28797;BME280;24974;54.444;18.560;2023-02-19T17:53:02;101146.81;;;6.91;43.02
28797;BME280;24974;54.444;18.560;2023-02-19T17:55:33;101148.00;;;7.75;41.64
28797;BME280;24974;54.444;18.560;2023-02-19T17:58:04;101146.19;;;7.29;42.09
28797;BME280;24974;54.444;18.560;2023-02-19T18:00:35;101154.16;;;7.06;42.66
28797;BME280;24974;54.444;18.560;2023-02-19T18:03:06;101146.19;;;7.40;41.97
28797;BME280;24974;54.444;18.560;2023-02-19T18:05:37;101146.25;;;6.94;43.12
28797;BME280;24974;54.444;18.560;2023-02-19T18:08:08;101148.81;;;7.75;42.01
28797;BME280;24974;54.444;18.560;2023-02-19T18:10:39;101152.72;;;7.54;41.96
28797;BME280;24974;54.444;18.560;2023-02-19T18:13:10;101148.84;;;7.65;41.38
28797;BME280;24974;54.444;18.560;2023-02-19T18:15:41;101147.78;;;7.51;42.11
28797;BME280;24974;54.444;18.560;2023-02-19T18:18:12;101148.06;;;7.44;42.62
28797;BME280;24974;54.444;18.560;2023-02-19T18:20:43;101156.09;;;6.75;43.94
28797;BME280;24974;54.444;18.560;2023-02-19T18:23:14;101151.97;;;7.13;44.02
28797;BME280;24974;54.444;18.560;2023-02-19T18:25:44;101156.53;;;7.63;42.90
28797;BME280;24974;54.444;18.560;2023-02-19T18:28:16;101155.72;;;7.52;43.17
28797;BME280;24974;54.444;18.560;2023-02-19T18:30:47;101144.31;;;7.25;43.76
28797;BME280;24974;54.444;18.560;2023-02-19T18:33:18;101142.91;;;7.38;43.93
28797;BME280;24974;54.444;18.560;2023-02-19T18:35:48;101155.81;;;6.66;45.49
28797;BME280;24974;54.444;18.560;2023-02-19T18:38:19;101148.69;;;7.31;43.97
28797;BME280;24974;54.444;18.560;2023-02-19T18:40:50;101154.03;;;7.67;44.18
28797;BME280;24974;54.444;18.560;2023-02-19T18:43:21;101153.84;;;7.48;44.17
28797;BME280;24974;54.444;18.560;2023-02-19T18:45:52;101144.59;;;7.18;45.92
28797;BME280;24974;54.444;18.560;2023-02-19T18:48:23;101148.13;;;7.24;45.89
28797;BME280;24974;54.444;18.560;2023-02-19T18:50:54;101141.84;;;7.23;46.39
28797;BME280;24974;54.444;18.560;2023-02-19T18:53:24;101138.69;;;7.76;45.40
28797;BME280;24974;54.444;18.560;2023-02-19T18:55:55;101137.97;;;7.45;46.04
28797;BME280;24974;54.444;18.560;2023-02-19T18:58:26;101139.38;;;7.32;46.28
28797;BME280;24974;54.444;18.560;2023-02-19T19:00:57;101140.97;;;6.21;49.31
28797;BME280;24974;54.444;18.560;2023-02-19T19:03:29;101143.66;;;7.58;47.09
28797;BME280;24974;54.444;18.560;2023-02-19T19:06:01;101138.84;;;7.25;48.27
28797;BME280;24974;54.444;18.560;2023-02-19T19:08:32;101145.94;;;6.44;50.47
28797;BME280;24974;54.444;18.560;2023-02-19T19:11:03;101149.66;;;7.71;47.90
28797;BME280;24974;54.444;18.560;2023-02-19T19:13:34;101147.53;;;7.42;48.39
28797;BME280;24974;54.444;18.560;2023-02-19T19:16:05;101163.97;;;6.45;52.65
28797;BME280;24974;54.444;18.560;2023-02-19T19:18:36;101144.13;;;7.86;49.69
28797;BME280;24974;54.444;18.560;2023-02-19T19:21:07;101152.47;;;7.40;51.28
28797;BME280;24974;54.444;18.560;2023-02-19T19:23:39;101151.16;;;7.22;52.13
28797;BME280;24974;54.444;18.560;2023-02-19T19:26:10;101149.50;;;6.96;54.07
28797;BME280;24974;54.444;18.560;2023-02-19T19:28:41;101143.25;;;6.90;55.04
28797;BME280;24974;54.444;18.560;2023-02-19T19:31:17;101125.94;;;7.36;53.47
28797;BME280;24974;54.444;18.560;2023-02-19T19:33:48;101123.66;;;7.78;53.32
28797;BME280;24974;54.444;18.560;2023-02-19T19:36:20;101127.69;;;7.91;52.94
28797;BME280;24974;54.444;18.560;2023-02-19T19:38:52;101124.50;;;8.23;51.96
28797;BME280;24974;54.444;18.560;2023-02-19T19:41:22;101124.34;;;8.04;52.73
28797;BME280;24974;54.444;18.560;2023-02-19T19:43:53;101132.72;;;8.23;51.80
28797;BME280;24974;54.444;18.560;2023-02-19T19:46:24;101131.28;;;7.87;52.74
28797;BME280;24974;54.444;18.560;2023-02-19T19:48:55;101142.06;;;7.37;55.09
28797;BME280;24974;54.444;18.560;2023-02-19T19:51:33;101146.47;;;7.33;55.63
28797;BME280;24974;54.444;18.560;2023-02-19T19:54:04;101145.41;;;7.04;56.97
28797;BME280;24974;54.444;18.560;2023-02-19T19:56:42;101133.38;;;7.25;56.33
28797;BME280;24974;54.444;18.560;2023-02-19T19:59:15;101138.78;;;7.50;55.85
28797;BME280;24974;54.444;18.560;2023-02-19T20:01:50;101139.66;;;7.20;57.05
28797;BME280;24974;54.444;18.560;2023-02-19T20:04:22;101138.28;;;7.13;57.49
28797;BME280;24974;54.444;18.560;2023-02-19T20:06:54;101138.28;;;7.33;57.34
28797;BME280;24974;54.444;18.560;2023-02-19T20:09:25;101130.09;;;8.03;55.53
28797;BME280;24974;54.444;18.560;2023-02-19T20:11:58;101116.25;;;8.28;54.84
28797;BME280;24974;54.444;18.560;2023-02-19T20:14:29;101126.06;;;7.85;56.52
28797;BME280;24974;54.444;18.560;2023-02-19T20:17:00;101112.97;;;7.77;56.47
28797;BME280;24974;54.444;18.560;2023-02-19T20:19:30;101114.72;;;7.42;57.45